Flight Track Log - Related Links

Times and Time Zones

All times are in EDT time to prevent confusion due to time zone crossing. See the UPS1308 flight status page for this flight to view local times or setup timezone preferences in your user account.

Time Position Orientation Groundspeed Altitude Reporting Facility
EDT Latitude Longitude Course Direction KTS MPH feet Rate Location/Type
Thu 03:26:37 AM 39.8860 -75.1750 70° East 206 237 3,100  Level FlightAware ADS-B
Thu 03:26:52 AM 39.8880 -75.1570 82° East 218 251 3,700 2,000 Climbing FlightAware ADS-B
Thu 03:27:07 AM 39.8820 -75.1370 111° Southeast 229 264 4,100 1,680 Climbing FlightAware ADS-B
Thu 03:27:17 AM 39.8740 -75.1280 139° Southeast 237 273 4,400 2,400 Climbing FlightAware ADS-B
Thu 03:27:27 AM 39.8600 -75.1230 165° South 243 280 4,900 5,200 Climbing FlightAware ADS-B
Thu 03:27:47 AM 39.8250 -75.1580 218° Southwest 269 310 7,000 5,143 Climbing FlightAware ADS-B
Thu 03:28:02 AM 39.8230 -75.1830 264° West 269 310 7,900 3,000 Climbing FlightAware ADS-B
Thu 03:28:07 AM 39.8230 -75.1860 270° West 270 311 8,000 2,850 Climbing FlightAware ADS-B
Thu 03:28:42 AM 39.8260 -75.2490 274° West 279 321 9,800 2,325 Climbing FlightAware ADS-B
Thu 03:29:27 AM 39.8270 -75.3290 271° West 320 368 11,100 1,553 Climbing FlightAware ADS-B
Thu 03:30:07 AM 39.8300 -75.4110 273° West 353 406 12,000 2,118 Climbing FlightAware ADS-B
Thu 03:30:52 AM 39.8320 -75.5100 272° West 361 415 14,100 2,612 Climbing FlightAware ADS-B
Thu 03:31:32 AM 39.8340 -75.5980 272° West 369 425 15,700 2,250 Climbing FlightAware ADS-B
Thu 03:32:12 AM 39.8360 -75.6850 272° West 379 436 17,100 2,147 Climbing FlightAware ADS-B
Thu 03:33:07 AM 39.8270 -75.8110 265° West 386 444 19,100 2,040 Climbing FlightAware ADS-B
Thu 03:33:52 AM 39.7800 -75.8960 234° Southwest 391 450 20,500 1,906 Climbing FlightAware ADS-B
Thu 03:34:32 AM 39.7330 -75.9720 231° Southwest 399 459 21,800 1,906 Climbing FlightAware ADS-B
Thu 03:35:17 AM 39.6810 -76.0570 232° Southwest 405 466 23,200 1,765 Climbing FlightAware ADS-B
Thu 03:35:57 AM 39.6340 -76.1330 231° Southwest 411 473 24,300 1,575 Climbing FlightAware ADS-B
Thu 03:36:37 AM 39.5860 -76.2120 232° Southwest 418 481 25,300 1,425 Climbing FlightAware ADS-B
Thu 03:37:17 AM 39.5380 -76.2900 231° Southwest 429 494 26,200 1,412 Climbing FlightAware ADS-B
Thu 03:38:02 AM 39.4790 -76.3840 231° Southwest 439 505 27,300 1,533 Climbing FlightAware ADS-B
Thu 03:38:47 AM 39.4240 -76.4740 232° Southwest 445 512 28,500 1,624 Climbing FlightAware ADS-B
Thu 03:39:27 AM 39.3690 -76.5620 231° Southwest 450 518 29,600 1,800 Climbing FlightAware ADS-B
Thu 03:40:07 AM 39.3170 -76.6440 231° Southwest 446 513 30,900 1,835 Climbing FlightAware ADS-B
Thu 03:40:52 AM 39.2580 -76.7380 231° Southwest 447 514 32,200 1,548 Climbing FlightAware ADS-B
Thu 03:41:40 AM 39.2050 -76.8236 231° Southwest 457 526 33,300 260 Climbing Washington Center
Thu 03:47:47 AM 38.7290 -77.5710 231° Southwest 437 503 34,000 92 Climbing FlightAware ADS-B
Thu 03:49:17 AM 38.6070 -77.7600 230° Southwest 435 501 34,000  Level FlightAware ADS-B
Thu 03:49:57 AM 38.5560 -77.8390 230° Southwest 434 499 34,000  Level FlightAware ADS-B
Thu 03:50:42 AM 38.4960 -77.9300 230° Southwest 434 499 34,000  Level FlightAware ADS-B
Thu 03:51:22 AM 38.4450 -78.0090 231° Southwest 434 499 34,000  Level FlightAware ADS-B
Thu 03:52:02 AM 38.3940 -78.0870 230° Southwest 434 499 34,000  Level FlightAware ADS-B
Thu 03:52:47 AM 38.3380 -78.1730 230° Southwest 433 498 34,000  Level FlightAware ADS-B
Thu 03:53:27 AM 38.2860 -78.2520 230° Southwest 430 495 34,000  Level FlightAware ADS-B
Thu 03:54:07 AM 38.2360 -78.3250 229° Southwest 430 495 34,000  Level FlightAware ADS-B
Thu 03:55:02 AM 38.1970 -78.3870 231° Southwest 429 494 34,000  Level FlightAware ADS-B
Thu 03:56:02 AM 38.1110 -78.5140 229° Southwest 430 495 34,000  Level FlightAware ADS-B
Thu 03:56:42 AM 38.0410 -78.6200 230° Southwest 429 494 34,000  Level FlightAware ADS-B
Thu 03:57:40 AM 37.9758 -78.7267 230° Southwest 440 506 34,000  Level Washington Center
Thu 03:58:40 AM 37.8978 -78.8444 230° Southwest 440 506 34,000  Level Washington Center
Thu 03:59:40 AM 37.8194 -78.9594 229° Southwest 440 506 34,000  Level Washington Center
Thu 04:00:42 AM 37.7411 -79.0742 229° Southwest 440 506 34,000  Level Washington Center
Thu 04:01:42 AM 37.6539 -79.1986 229° Southwest 445 512 34,000  Level Washington Center
Thu 04:02:42 AM 37.5731 -79.3153 229° Southwest 445 512 34,000  Level Washington Center
Thu 04:03:43 AM 37.4944 -79.4344 230° Southwest 445 512 34,000  Level Washington Center
Thu 04:04:42 AM 37.4133 -79.5506 229° Southwest 445 512 34,000  Level Washington Center
Thu 04:05:42 AM 37.3344 -79.6667 230° Southwest 445 512 34,000  Level Washington Center
Thu 04:06:40 AM 37.2553 -79.7825 229° Southwest 445 512 34,000  Level Washington Center
Thu 04:08:21 AM 37.1250 -79.9675 229° Southwest 435 501 34,000  Level Atlanta Center
Thu 04:09:21 AM 37.0356 -80.0944 229° Southwest 441 507 34,000  Level Atlanta Center
Thu 04:10:21 AM 36.9558 -80.2100 229° Southwest 441 507 34,000  Level Atlanta Center
Thu 04:11:21 AM 36.8758 -80.3256 229° Southwest 446 513 34,000  Level Atlanta Center
Thu 04:17:21 AM 36.3867 -81.0136 229° Southwest 446 513 34,000  Level FlightAware ADS-B
Thu 04:17:51 AM 36.3452 -81.0715 228° Southwest 448 516 34,000  Level FlightAware ADS-B
Thu 04:18:23 AM 36.3018 -81.1323 228° Southwest 448 516 34,000  Level FlightAware ADS-B
Thu 04:18:54 AM 36.2585 -81.1926 228° Southwest 448 516 34,000  Level FlightAware ADS-B
Thu 04:19:32 AM 36.2064 -81.2653 228° Southwest 448 516 34,000  Level FlightAware ADS-B
Thu 04:20:47 AM 36.1024 -81.4097 228° Southwest 448 516 34,000  Level FlightAware ADS-B
Thu 04:21:18 AM 36.0598 -81.4687 228° Southwest 448 516 34,000  Level FlightAware ADS-B
Thu 04:21:51 AM 36.0150 -81.5305 228° Southwest 447 514 34,000  Level FlightAware ADS-B
Thu 04:22:30 AM 35.9609 -81.6050 228° Southwest 446 513 34,000  Level FlightAware ADS-B
Thu 04:23:00 AM 35.9191 -81.6623 228° Southwest 446 513 34,000  Level FlightAware ADS-B
Thu 04:23:31 AM 35.8762 -81.7209 228° Southwest 445 512 34,000  Level FlightAware ADS-B
Thu 04:24:01 AM 35.8341 -81.7782 228° Southwest 445 512 34,000  Level FlightAware ADS-B
Thu 04:24:32 AM 35.7921 -81.8354 228° Southwest 444 511 34,000  Level FlightAware ADS-B
Thu 04:25:02 AM 35.7502 -81.8924 228° Southwest 443 510 34,000  Level FlightAware ADS-B
Thu 04:25:36 AM 35.7039 -81.9555 228° Southwest 443 510 34,000  Level FlightAware ADS-B
Thu 04:26:06 AM 35.6625 -82.0117 228° Southwest 443 510 34,000  Level FlightAware ADS-B
Thu 04:26:36 AM 35.6205 -82.0686 228° Southwest 444 511 34,000  Level FlightAware ADS-B
Thu 04:27:07 AM 35.5782 -82.1259 228° Southwest 444 511 34,000  Level FlightAware ADS-B
Thu 04:27:37 AM 35.5360 -82.1828 228° Southwest 446 513 34,000  Level FlightAware ADS-B
Thu 04:28:07 AM 35.4942 -82.2391 228° Southwest 447 514 34,000  Level FlightAware ADS-B
Thu 04:28:37 AM 35.4526 -82.2950 228° Southwest 449 517 34,000  Level FlightAware ADS-B
Thu 04:29:07 AM 35.4083 -82.3495 225° Southwest 453 521 34,000  Level FlightAware ADS-B
Thu 04:29:37 AM 35.3632 -82.4045 225° Southwest 451 519 34,000  Level FlightAware ADS-B
Thu 04:30:08 AM 35.3177 -82.4605 225° Southwest 453 521 34,000  Level FlightAware ADS-B
Thu 04:30:39 AM 35.2727 -82.5157 225° Southwest 454 522 34,000  Level FlightAware ADS-B
Thu 04:31:17 AM 35.2159 -82.5851 225° Southwest 453 521 34,000  Level FlightAware ADS-B
Thu 04:31:48 AM 35.1701 -82.6412 225° Southwest 455 524 34,000  Level FlightAware ADS-B
Thu 04:32:19 AM 35.1238 -82.6976 225° Southwest 456 525 34,000  Level FlightAware ADS-B
Thu 04:32:49 AM 35.0788 -82.7522 225° Southwest 458 527 34,000  Level FlightAware ADS-B
Thu 04:33:19 AM 35.0333 -82.8072 225° Southwest 459 528 34,000  Level FlightAware ADS-B
Thu 04:33:49 AM 34.9877 -82.8621 225° Southwest 459 528 34,000  Level FlightAware ADS-B
Thu 04:34:19 AM 34.9420 -82.9170 225° Southwest 458 527 34,000  Level FlightAware ADS-B
Thu 04:34:51 AM 34.8947 -82.9740 225° Southwest 458 527 34,000 -581 Level FlightAware ADS-B
Thu 04:35:21 AM 34.8484 -83.0296 225° Southwest 458 527 33,400 -1,869 Descending FlightAware ADS-B
Thu 04:35:52 AM 34.8022 -83.0848 224° Southwest 455 524 32,100 -2,262 Descending FlightAware ADS-B
Thu 04:36:22 AM 34.7569 -83.1390 225° Southwest 448 516 31,100 -1,969 Descending FlightAware ADS-B
Thu 04:36:56 AM 34.7079 -83.1976 225° Southwest 441 507 30,000 -2,063 Descending FlightAware ADS-B
Thu 04:37:26 AM 34.6638 -83.2503 225° Southwest 437 503 28,900 -2,066 Descending FlightAware ADS-B
Thu 04:37:57 AM 34.6207 -83.3018 225° Southwest 426 490 27,900 -1,969 Descending FlightAware ADS-B
Thu 04:38:30 AM 34.5745 -83.3567 224° Southwest 418 481 26,800 -2,095 Descending FlightAware ADS-B
Thu 04:39:00 AM 34.5326 -83.4065 224° Southwest 411 473 25,700 -2,083 Descending FlightAware ADS-B
Thu 04:39:42 AM 34.4763 -83.4735 224° Southwest 402 463 24,300 -1,973 Descending FlightAware ADS-B
Thu 04:40:13 AM 34.4362 -83.5210 224° Southwest 395 455 23,300 -1,967 Descending FlightAware ADS-B
Thu 04:40:43 AM 34.3965 -83.5681 224° Southwest 389 448 22,300 -1,970 Descending FlightAware ADS-B
Thu 04:41:20 AM 34.3505 -83.6226 224° Southwest 389 448 21,100 -1,962 Descending FlightAware ADS-B
Thu 04:42:27 AM 34.2680 -83.7190 224° Southwest 369 425 18,900 -2,036 Descending FlightAware ADS-B
Thu 04:43:12 AM 34.2130 -83.7840 224° Southwest 364 419 17,300 -2,118 Descending FlightAware ADS-B
Thu 04:43:52 AM 34.1650 -83.8410 225° Southwest 359 413 15,900 -1,800 Descending FlightAware ADS-B
Thu 04:44:32 AM 34.1180 -83.8960 224° Southwest 343 395 14,900 -847 Descending FlightAware ADS-B
Thu 04:45:17 AM 34.0630 -83.9520 220° Southwest 347 399 14,700 -988 Descending FlightAware ADS-B
Thu 04:45:57 AM 34.0060 -83.9840 205° Southwest 340 391 13,500 -1,800 Descending FlightAware ADS-B
Thu 04:46:37 AM 33.9510 -84.0150 205° Southwest 341 392 12,300 -1,624 Descending FlightAware ADS-B
Thu 04:47:22 AM 33.8860 -84.0530 206° Southwest 307 353 11,200 -1,835 Descending FlightAware ADS-B
Thu 04:48:02 AM 33.8370 -84.0820 206° Southwest 288 331 9,700 -2,291 Descending FlightAware ADS-B
Thu 04:48:17 AM 33.8190 -84.0920 205° Southwest 285 328 9,100 -2,250 Descending FlightAware ADS-B
Thu 04:48:42 AM 33.7950 -84.1060 206° Southwest 281 323 8,200 -1,080 Descending FlightAware ADS-B
Thu 04:49:07 AM 33.7680 -84.1210 205° Southwest 281 323 8,200  Level FlightAware ADS-B
Thu 04:49:37 AM 33.7380 -84.1380 205° Southwest 281 323 8,200  Level FlightAware ADS-B
Thu 04:49:57 AM 33.7180 -84.1490 205° Southwest 281 323 8,200  Level FlightAware ADS-B
Thu 04:50:17 AM 33.6980 -84.1610 207° Southwest 281 323 8,200 -3,071 Level FlightAware ADS-B
Thu 04:51:21 AM 33.6481 -84.2308 207° Southwest 218 251 3,900 -2,613 Descending Atlanta Center
Thu 04:52:21 AM 33.6478 -84.2933 270° West 180 207 2,800 -893 Descending Atlanta Center
Thu 04:53:22 AM 33.6500 -84.3500 273° West 145 167 2,100 -694 Descending Atlanta TRACON
Thu 04:54:22 AM 33.6500 -84.3833 270° West 116 133 1,400 -700 Descending Atlanta TRACON
Thu 04:56:00 AM 33.6333 -84.4167 265° West  Level FlightAware Approximate
Thu 05:03:00 AM 33.6367 -84.4279 265° West  Level Estimated

Login

Don't have an account? Register now (free) for customized features, flight alerts, and more!